createdAt,value
2019-04-27T00:01:18.332Z,87.29
2019-04-27T00:03:54.013Z,86.86
2019-04-27T00:06:25.614Z,87.15
2019-04-27T00:08:56.716Z,87.37
2019-04-27T00:11:45.549Z,87.59
2019-04-27T00:14:15.010Z,87.43
2019-04-27T00:16:53.593Z,86.66
2019-04-27T00:19:27.393Z,86.68
2019-04-27T00:21:57.571Z,86.79
2019-04-27T00:24:27.024Z,86.67
2019-04-27T00:26:56.592Z,86.51
2019-04-27T00:29:26.134Z,86.84
2019-04-27T00:31:55.886Z,86.63
2019-04-27T00:34:25.376Z,86.93
2019-04-27T00:36:59.311Z,86.84
2019-04-27T00:39:39.396Z,87.05
2019-04-27T00:42:09.053Z,86.84
2019-04-27T00:44:38.550Z,86.67
2019-04-27T00:47:08.140Z,86.87
2019-04-27T00:49:38.631Z,86.78
2019-04-27T00:52:08.228Z,86.53
2019-04-27T00:54:37.785Z,86.42
2019-04-27T00:57:09.062Z,86.18
2019-04-27T00:59:56.053Z,86.11
2019-04-27T01:02:43.656Z,85.89
2019-04-27T01:05:14.866Z,85.61
2019-04-27T01:07:44.381Z,85.54
2019-04-27T01:10:13.956Z,85.27
2019-04-27T01:12:46.476Z,85.44
2019-04-27T01:15:15.891Z,85.50
2019-04-27T01:17:45.329Z,85.24
2019-04-27T01:20:14.896Z,85.64
2019-04-27T01:22:44.424Z,85.84
2019-04-27T01:25:14.011Z,86.13
2019-04-27T01:27:54.642Z,86.35
2019-04-27T01:30:25.844Z,86.38
2019-04-27T01:32:56.278Z,86.28
2019-04-27T01:35:25.971Z,86.18
2019-04-27T01:37:58.984Z,86.17
2019-04-27T01:40:29.524Z,86.33
2019-04-27T01:42:59.162Z,86.35
2019-04-27T01:45:29.109Z,86.15
2019-04-27T01:47:59.588Z,86.08
2019-04-27T01:50:29.165Z,86.46
2019-04-27T01:52:59.240Z,85.91
2019-04-27T01:55:31.418Z,86.38
2019-04-27T01:58:03.772Z,85.83
2019-04-27T02:00:39.575Z,86.07
2019-04-27T02:03:12.438Z,85.87
2019-04-27T02:05:56.134Z,86.16
2019-04-27T02:08:25.627Z,86.71
2019-04-27T02:10:55.072Z,86.11
2019-04-27T02:13:24.566Z,86.21
2019-04-27T02:15:54.146Z,86.08
2019-04-27T02:18:34.624Z,85.79
2019-04-27T02:20:55.449Z,85.75
2019-04-27T02:23:24.894Z,85.84
2019-04-27T02:25:54.498Z,86.08
2019-04-27T02:28:29.425Z,86.18
2019-04-27T02:31:09.785Z,86.32
2019-04-27T02:33:50.000Z,86.33
2019-04-27T02:36:22.327Z,85.82
2019-04-27T02:38:51.827Z,85.60
2019-04-27T02:41:21.367Z,86.07
2019-04-27T02:44:01.798Z,86.35
2019-04-27T02:46:31.753Z,86.35
2019-04-27T02:49:06.427Z,86.13
2019-04-27T02:51:34.013Z,86.34
2019-04-27T02:54:03.451Z,86.21
2019-04-27T02:56:32.894Z,86.34
2019-04-27T02:59:02.316Z,86.01
2019-04-27T03:01:33.394Z,85.77
2019-04-27T03:04:02.827Z,86.25
2019-04-27T03:06:32.344Z,86.32
2019-04-27T03:09:01.875Z,86.10
2019-04-27T03:11:33.078Z,86.33
2019-04-27T03:14:10.297Z,86.34
2019-04-27T03:16:52.042Z,86.43
2019-04-27T03:19:39.810Z,86.31
2019-04-27T03:22:23.701Z,86.41
2019-04-27T03:25:01.067Z,87.02
2019-04-27T03:27:40.507Z,86.91
2019-04-27T03:30:12.578Z,87.04
2019-04-27T03:32:43.303Z,86.59
2019-04-27T03:35:14.130Z,86.25
2019-04-27T03:37:44.452Z,86.04
2019-04-27T03:40:14.242Z,86.20
2019-04-27T03:42:45.486Z,85.92
2019-04-27T03:45:15.043Z,86.13
2019-04-27T03:47:45.134Z,85.95
2019-04-27T03:50:16.538Z,86.58
2019-04-27T03:52:59.932Z,86.57
2019-04-27T03:55:43.671Z,86.74
2019-04-27T03:58:21.410Z,86.78
2019-04-27T04:00:51.972Z,86.45
2019-04-27T04:03:20.722Z,86.54
2019-04-27T04:05:52.324Z,86.59
2019-04-27T04:08:21.652Z,86.50
2019-04-27T04:10:52.803Z,86.92
2019-04-27T04:13:29.909Z,86.48
2019-04-27T04:16:00.979Z,86.66
2019-04-27T04:18:32.053Z,86.74
2019-04-27T04:21:03.157Z,86.83
2019-04-27T04:23:32.596Z,86.78
2019-04-27T04:26:02.037Z,86.84
2019-04-27T04:28:31.457Z,86.56
2019-04-27T04:31:00.889Z,86.73
2019-04-27T04:33:30.571Z,86.44
2019-04-27T04:36:00.053Z,86.64
2019-04-27T04:38:30.501Z,86.68
2019-04-27T04:41:10.853Z,86.68
2019-04-27T04:43:59.849Z,86.56
2019-04-27T04:46:30.138Z,86.23
2019-04-27T04:49:00.348Z,86.46
2019-04-27T04:51:30.496Z,86.19
2019-04-27T04:54:00.195Z,86.19
2019-04-27T04:56:29.678Z,86.55
2019-04-27T04:59:00.047Z,86.52
2019-04-27T05:01:30.784Z,86.16
2019-04-27T05:04:02.322Z,86.18
2019-04-27T05:06:33.465Z,85.71
2019-04-27T05:09:03.212Z,85.31
2019-04-27T05:11:34.449Z,85.76
2019-04-27T05:14:03.944Z,85.79
2019-04-27T05:16:33.375Z,85.34
2019-04-27T05:19:02.823Z,85.41
2019-04-27T05:21:35.734Z,85.22
2019-04-27T05:24:09.406Z,85.42
2019-04-27T05:26:39.764Z,84.97
2019-04-27T05:29:10.373Z,84.59
2019-04-27T05:31:40.277Z,84.23
2019-04-27T05:34:09.813Z,84.42
2019-04-27T05:36:43.533Z,83.95
2019-04-27T05:39:13.140Z,83.83
2019-04-27T05:41:41.850Z,83.94
2019-04-27T05:44:18.299Z,83.87
2019-04-27T05:46:49.313Z,84.13
2019-04-27T05:49:41.208Z,84.25
2019-04-27T05:52:29.753Z,83.86
2019-04-27T05:54:59.650Z,83.99
2019-04-27T05:57:31.518Z,84.24
2019-04-27T06:00:02.178Z,84.45
2019-04-27T06:02:33.429Z,84.34
2019-04-27T06:05:02.932Z,83.96
2019-04-27T06:07:32.382Z,84.30
2019-04-27T06:10:01.801Z,84.74
2019-04-27T06:12:31.318Z,84.88
2019-04-27T06:15:02.272Z,84.65
2019-04-27T06:17:31.733Z,84.61
2019-04-27T06:20:01.152Z,84.51
2019-04-27T06:22:31.685Z,84.26
2019-04-27T06:25:01.117Z,84.46
2019-04-27T06:27:31.076Z,84.41
2019-04-27T06:30:00.565Z,84.09
2019-04-27T06:32:30.241Z,83.80
2019-04-27T06:34:59.798Z,83.50
2019-04-27T06:37:29.637Z,83.74
2019-04-27T06:40:00.312Z,83.34
2019-04-27T06:42:29.986Z,83.13
2019-04-27T06:45:00.090Z,83.49
2019-04-27T06:47:32.732Z,82.66
2019-04-27T06:50:02.183Z,83.16
2019-04-27T06:52:31.614Z,83.11
2019-04-27T06:55:01.180Z,82.08
2019-04-27T06:57:31.711Z,81.20
2019-04-27T07:00:01.161Z,81.44
2019-04-27T07:02:32.073Z,81.44
2019-04-27T07:05:01.606Z,81.56
2019-04-27T07:07:32.571Z,81.51
2019-04-27T07:10:02.397Z,81.31
2019-04-27T07:12:31.888Z,80.63
2019-04-27T07:15:01.410Z,80.08
2019-04-27T07:17:30.911Z,80.11
2019-04-27T07:20:00.371Z,79.18
2019-04-27T07:22:31.656Z,78.46
2019-04-27T07:25:01.115Z,78.00
2019-04-27T07:27:30.648Z,77.05
2019-04-27T07:30:01.729Z,77.45
2019-04-27T07:32:31.453Z,76.41
2019-04-27T07:35:00.873Z,77.26
2019-04-27T07:37:30.622Z,76.56
2019-04-27T07:40:00.075Z,75.97
2019-04-27T07:42:32.185Z,74.06
2019-04-27T07:45:19.409Z,74.84
2019-04-27T07:47:50.670Z,74.40
2019-04-27T07:50:20.139Z,73.52
2019-04-27T07:52:49.587Z,75.20
2019-04-27T07:55:19.122Z,72.97
2019-04-27T07:57:49.444Z,74.71
2019-04-27T08:00:20.598Z,74.29
2019-04-27T08:02:50.125Z,73.42
2019-04-27T08:05:19.544Z,73.22
2019-04-27T08:07:49.260Z,71.01
2019-04-27T08:10:19.459Z,72.53
2019-04-27T08:12:49.814Z,72.91
2019-04-27T08:15:19.484Z,72.25
2019-04-27T08:17:49.363Z,71.30
2019-04-27T08:20:21.147Z,69.44
2019-04-27T08:22:50.111Z,68.97
2019-04-27T08:25:20.114Z,68.99
2019-04-27T08:27:53.940Z,68.90
2019-04-27T08:30:36.856Z,68.75
2019-04-27T08:33:09.247Z,67.42
2019-04-27T08:35:38.944Z,66.16
2019-04-27T08:38:09.797Z,66.34
2019-04-27T08:40:39.443Z,66.35
2019-04-27T08:43:09.323Z,64.36
2019-04-27T08:45:41.965Z,63.24
2019-04-27T08:48:11.405Z,65.30
2019-04-27T08:50:42.227Z,66.05
2019-04-27T08:53:11.800Z,64.51
2019-04-27T08:55:41.214Z,64.34
2019-04-27T08:58:10.652Z,63.20
2019-04-27T09:00:40.140Z,60.40
2019-04-27T09:03:09.729Z,61.01
2019-04-27T09:05:39.211Z,60.00
2019-04-27T09:08:22.405Z,60.10
2019-04-27T09:10:53.545Z,60.12
2019-04-27T09:13:33.705Z,60.47
2019-04-27T09:16:20.948Z,60.56
2019-04-27T09:18:52.126Z,58.09
2019-04-27T09:21:21.553Z,58.13
2019-04-27T09:23:51.077Z,58.41
2019-04-27T09:26:20.536Z,56.65
2019-04-27T09:28:49.967Z,56.74
2019-04-27T09:31:19.678Z,57.27
2019-04-27T09:33:49.175Z,57.03
2019-04-27T09:36:18.612Z,57.33
2019-04-27T09:38:48.102Z,57.50
2019-04-27T09:41:17.553Z,57.85
2019-04-27T09:43:46.961Z,58.18
2019-04-27T09:46:16.482Z,56.96
2019-04-27T09:48:46.620Z,55.30
2019-04-27T09:51:16.343Z,55.25
2019-04-27T09:53:45.958Z,54.95
2019-04-27T09:56:16.475Z,56.36
2019-04-27T09:58:47.105Z,56.58
2019-04-27T10:01:18.163Z,56.85
2019-04-27T10:03:48.957Z,57.85
2019-04-27T10:06:18.442Z,57.45
2019-04-27T10:08:47.958Z,56.95
2019-04-27T10:11:17.445Z,55.07
2019-04-27T10:13:46.959Z,55.09
2019-04-27T10:16:16.545Z,55.73
2019-04-27T10:18:47.911Z,55.91
2019-04-27T10:21:17.410Z,52.67
2019-04-27T10:23:48.361Z,54.48
2019-04-27T10:26:17.791Z,53.66
2019-04-27T10:28:48.880Z,53.83
2019-04-27T10:31:20.108Z,53.59
2019-04-27T10:33:51.086Z,51.60
2019-04-27T10:36:23.233Z,49.35
2019-04-27T10:38:52.658Z,48.70
2019-04-27T10:41:22.112Z,50.22
2019-04-27T10:43:51.551Z,50.91
2019-04-27T10:46:21.015Z,49.87
2019-04-27T10:48:50.436Z,48.86
2019-04-27T10:51:19.961Z,49.60
2019-04-27T10:53:49.379Z,50.50
2019-04-27T10:56:18.884Z,51.13
2019-04-27T10:58:49.381Z,49.02
2019-04-27T11:01:19.206Z,48.99
2019-04-27T11:03:51.892Z,50.43
2019-04-27T11:06:38.125Z,50.88
2019-04-27T11:09:13.361Z,48.93
2019-04-27T11:11:42.934Z,49.65
2019-04-27T11:14:12.487Z,47.83
2019-04-27T11:16:41.996Z,49.87
2019-04-27T11:19:11.483Z,49.67
2019-04-27T11:21:40.925Z,48.34
2019-04-27T11:24:10.923Z,47.57
2019-04-27T11:26:40.369Z,45.62
2019-04-27T11:29:09.894Z,45.32
2019-04-27T11:31:40.481Z,45.77
2019-04-27T11:34:10.088Z,46.88
2019-04-27T11:36:41.360Z,46.59
2019-04-27T11:39:13.861Z,45.61
2019-04-27T11:41:43.797Z,45.20
2019-04-27T11:44:13.223Z,46.50
2019-04-27T11:46:42.779Z,46.85
2019-04-27T11:49:15.674Z,45.89
2019-04-27T11:51:46.624Z,46.25
2019-04-27T11:54:16.287Z,46.79
2019-04-27T11:56:47.188Z,46.12
2019-04-27T11:59:16.806Z,42.98
2019-04-27T12:01:47.981Z,42.66
2019-04-27T12:04:18.920Z,42.41
2019-04-27T12:06:48.347Z,43.47
2019-04-27T12:09:17.862Z,43.03
2019-04-27T12:11:49.175Z,44.28
2019-04-27T12:14:20.350Z,44.43
2019-04-27T12:16:50.931Z,45.08
2019-04-27T12:19:26.707Z,44.48
2019-04-27T12:21:56.608Z,45.94
2019-04-27T12:24:26.736Z,46.74
2019-04-27T12:26:59.659Z,46.74
2019-04-27T12:29:47.349Z,47.18
2019-04-27T12:32:18.845Z,47.40
2019-04-27T12:34:48.370Z,47.93
2019-04-27T12:37:19.679Z,46.75
2019-04-27T12:39:50.810Z,46.10
2019-04-27T12:42:21.119Z,46.66
2019-04-27T12:44:51.975Z,47.00
2019-04-27T12:47:21.732Z,49.19
2019-04-27T12:49:51.261Z,53.07
2019-04-27T12:52:22.292Z,53.68
2019-04-27T12:55:05.993Z,54.37
2019-04-27T12:57:37.205Z,54.67
2019-04-27T13:00:09.525Z,55.05
2019-04-27T13:02:39.542Z,56.12
2019-04-27T13:05:09.202Z,55.87
2019-04-27T13:07:38.656Z,56.09
2019-04-27T13:10:08.336Z,55.95
2019-04-27T13:12:37.817Z,56.84
2019-04-27T13:15:11.103Z,56.23
2019-04-27T13:17:40.649Z,56.91
2019-04-27T13:20:10.627Z,56.97
2019-04-27T13:22:40.216Z,57.72
2019-04-27T13:25:11.794Z,57.91
2019-04-27T13:27:43.949Z,58.62
2019-04-27T13:30:13.665Z,58.44
2019-04-27T13:32:43.500Z,58.45
2019-04-27T13:35:13.344Z,58.51
2019-04-27T13:37:43.903Z,58.57
2019-04-27T13:40:17.036Z,60.18
2019-04-27T13:42:57.280Z,60.36
2019-04-27T13:45:40.010Z,59.71
2019-04-27T13:48:11.140Z,60.13
2019-04-27T13:50:42.291Z,59.65
2019-04-27T13:53:11.815Z,58.60
2019-04-27T13:55:41.312Z,58.97
2019-04-27T13:58:12.191Z,61.13
2019-04-27T14:00:41.955Z,64.78
2019-04-27T14:03:14.656Z,70.66
2019-04-27T14:05:44.282Z,73.14
2019-04-27T14:08:13.717Z,75.44
2019-04-27T14:10:43.278Z,76.13
2019-04-27T14:13:12.724Z,75.95
2019-04-27T14:15:42.233Z,76.44
2019-04-27T14:18:11.677Z,77.06
2019-04-27T14:20:41.104Z,77.66
2019-04-27T14:23:12.199Z,79.11
2019-04-27T14:25:42.113Z,79.69
2019-04-27T14:28:11.630Z,79.34
2019-04-27T14:30:41.208Z,79.32
2019-04-27T14:33:10.884Z,79.30
2019-04-27T14:35:42.159Z,79.44
2019-04-27T14:38:11.647Z,79.71
2019-04-27T14:40:45.495Z,78.89
2019-04-27T14:43:15.060Z,79.56
2019-04-27T14:45:44.512Z,80.28
2019-04-27T14:48:18.418Z,79.77
2019-04-27T14:50:48.620Z,79.29
2019-04-27T14:53:18.123Z,78.27
2019-04-27T14:55:49.021Z,78.77
2019-04-27T14:58:19.648Z,78.88
2019-04-27T15:00:49.862Z,79.72
2019-04-27T15:03:19.623Z,79.30
2019-04-27T15:05:49.794Z,79.60
2019-04-27T15:08:20.467Z,79.98
2019-04-27T15:10:49.998Z,79.97
2019-04-27T15:13:19.493Z,80.23
2019-04-27T15:15:48.940Z,78.82
2019-04-27T15:18:19.749Z,79.59
2019-04-27T15:20:51.745Z,79.79
2019-04-27T15:23:21.362Z,79.69
2019-04-27T15:25:53.303Z,79.18
2019-04-27T15:28:24.363Z,79.01
2019-04-27T15:30:59.577Z,79.00
2019-04-27T15:33:53.270Z,79.25
2019-04-27T15:36:29.494Z,79.06
2019-04-27T15:39:07.905Z,79.49
2019-04-27T15:41:39.263Z,79.65
2019-04-27T15:44:09.460Z,79.71
2019-04-27T15:46:39.348Z,80.55
2019-04-27T15:49:11.514Z,80.21
2019-04-27T15:51:40.132Z,80.21
2019-04-27T15:54:10.729Z,80.25
2019-04-27T15:56:41.288Z,80.17
2019-04-27T15:59:10.792Z,80.76
2019-04-27T16:01:40.481Z,81.89
2019-04-27T16:04:11.458Z,81.50
2019-04-27T16:06:42.831Z,81.86
2019-04-27T16:09:24.214Z,82.08
2019-04-27T16:11:57.783Z,81.55
2019-04-27T16:14:21.197Z,81.90
2019-04-27T16:16:52.528Z,81.24
2019-04-27T16:19:21.967Z,78.97
2019-04-27T16:21:54.276Z,80.25
2019-04-27T16:24:22.556Z,78.67
2019-04-27T16:26:55.882Z,79.15
2019-04-27T16:29:29.845Z,79.15
2019-04-27T16:31:54.762Z,80.08
2019-04-27T16:34:24.235Z,79.97
2019-04-27T16:36:53.865Z,80.82
2019-04-27T16:39:23.496Z,81.66
2019-04-27T16:41:53.013Z,80.31
2019-04-27T16:44:22.505Z,81.38
2019-04-27T16:46:52.181Z,81.39
2019-04-27T16:49:23.552Z,81.52
2019-04-27T16:51:53.533Z,81.62
2019-04-27T16:54:23.049Z,81.87
2019-04-27T16:57:01.995Z,81.00
2019-04-27T16:59:42.295Z,81.43
2019-04-27T17:01:55.537Z,81.73
2019-04-27T17:04:25.100Z,81.77
2019-04-27T17:06:54.622Z,81.90
2019-04-27T17:09:24.233Z,81.78
2019-04-27T17:11:53.673Z,82.09
2019-04-27T17:14:35.066Z,82.34
2019-04-27T17:17:15.370Z,82.39
2019-04-27T17:19:49.109Z,81.75
2019-04-27T17:22:18.307Z,81.73
2019-04-27T17:24:49.362Z,80.95
2019-04-27T17:27:22.818Z,81.74
2019-04-27T17:29:57.633Z,81.33
2019-04-27T17:32:25.556Z,81.59
2019-04-27T17:35:02.229Z,81.41
2019-04-27T17:37:32.236Z,81.12
2019-04-27T17:40:00.837Z,80.64
2019-04-27T17:42:30.777Z,79.31
2019-04-27T17:45:00.636Z,80.59
2019-04-27T17:47:31.494Z,79.63
2019-04-27T17:50:00.924Z,80.58
2019-04-27T17:52:30.406Z,80.68
2019-04-27T17:55:00.593Z,80.05
2019-04-27T17:57:31.283Z,80.60
2019-04-27T18:00:03.489Z,81.40
2019-04-27T18:02:38.823Z,82.17
2019-04-27T18:05:09.592Z,81.28
2019-04-27T18:07:41.825Z,81.89
2019-04-27T18:10:13.382Z,81.63
2019-04-27T18:12:44.531Z,80.97
2019-04-27T18:15:15.844Z,81.71
2019-04-27T18:17:51.739Z,82.30
2019-04-27T18:20:23.633Z,82.27
2019-04-27T18:23:01.153Z,82.69
2019-04-27T18:25:35.554Z,82.07
2019-04-27T18:28:08.090Z,82.07
2019-04-27T18:30:42.120Z,82.53
2019-04-27T18:33:11.811Z,82.94
2019-04-27T18:35:41.252Z,83.11
2019-04-27T18:38:11.762Z,83.01
2019-04-27T18:40:41.180Z,83.61
2019-04-27T18:43:12.407Z,83.66
2019-04-27T18:45:45.056Z,83.29
2019-04-27T18:48:14.923Z,84.10
2019-04-27T18:50:53.311Z,83.79
2019-04-27T18:53:28.900Z,83.86
2019-04-27T18:56:04.880Z,83.66
2019-04-27T18:58:29.825Z,83.80
2019-04-27T19:00:59.250Z,84.26
2019-04-27T19:03:31.854Z,84.54
2019-04-27T19:06:02.924Z,84.65
2019-04-27T19:08:32.437Z,84.64
2019-04-27T19:11:04.670Z,85.00
2019-04-27T19:13:33.136Z,84.76
2019-04-27T19:16:02.698Z,84.90
2019-04-27T19:18:32.208Z,84.59
2019-04-27T19:21:01.736Z,84.68
2019-04-27T19:23:31.155Z,84.39
2019-04-27T19:26:11.321Z,84.37
2019-04-27T19:28:48.478Z,84.54
2019-04-27T19:31:19.579Z,84.88
2019-04-27T19:33:50.087Z,84.81
2019-04-27T19:36:19.602Z,84.39
2019-04-27T19:38:49.756Z,84.09
2019-04-27T19:41:19.465Z,84.53
2019-04-27T19:43:49.021Z,84.72
2019-04-27T19:46:20.077Z,84.76
2019-04-27T19:48:50.054Z,84.87
2019-04-27T19:51:19.615Z,84.39
2019-04-27T19:53:49.060Z,84.30
2019-04-27T19:56:20.993Z,84.28
2019-04-27T19:58:52.404Z,84.63
2019-04-27T20:01:23.800Z,84.55
2019-04-27T20:03:54.958Z,84.68
2019-04-27T20:06:24.415Z,84.81
2019-04-27T20:08:55.481Z,85.29
2019-04-27T20:11:25.027Z,85.25
2019-04-27T20:13:54.481Z,85.36
2019-04-27T20:16:23.889Z,84.91
2019-04-27T20:18:53.331Z,84.74
2019-04-27T20:21:22.771Z,84.57
2019-04-27T20:23:52.194Z,84.50
2019-04-27T20:26:21.708Z,84.45
2019-04-27T20:28:51.411Z,83.96
2019-04-27T20:31:20.954Z,83.88
2019-04-27T20:33:50.390Z,83.37
2019-04-27T20:36:21.372Z,83.54
2019-04-27T20:38:51.022Z,83.86
2019-04-27T20:41:21.841Z,83.57
2019-04-27T20:43:51.560Z,83.63
2019-04-27T20:46:22.728Z,83.34
2019-04-27T20:48:53.453Z,83.23
2019-04-27T20:51:24.499Z,82.74
2019-04-27T20:53:55.590Z,82.49
2019-04-27T20:56:25.012Z,83.03
2019-04-27T20:58:54.455Z,82.74
2019-04-27T21:01:23.873Z,83.24
2019-04-27T21:03:54.954Z,82.71
2019-04-27T21:06:26.141Z,82.76
2019-04-27T21:08:55.599Z,83.36
2019-04-27T21:11:26.646Z,83.08
2019-04-27T21:13:57.027Z,82.92
2019-04-27T21:16:26.659Z,83.56
2019-04-27T21:18:56.107Z,84.01
2019-04-27T21:21:25.541Z,83.71
2019-04-27T21:23:54.985Z,83.68
2019-04-27T21:26:24.404Z,83.71
2019-04-27T21:28:53.860Z,83.44
2019-04-27T21:31:23.306Z,83.95
2019-04-27T21:33:52.802Z,83.89
2019-04-27T21:36:22.237Z,83.75
2019-04-27T21:38:52.165Z,83.55
2019-04-27T21:41:22.720Z,83.44
2019-04-27T21:43:52.304Z,83.32
2019-04-27T21:46:24.815Z,83.58
2019-04-27T21:48:54.243Z,83.98
2019-04-27T21:51:23.679Z,83.75
2019-04-27T21:54:00.898Z,84.06
2019-04-27T21:56:31.263Z,83.55
2019-04-27T21:59:01.101Z,83.79
2019-04-27T22:01:32.549Z,83.62
2019-04-27T22:04:05.751Z,83.39
2019-04-27T22:06:35.510Z,83.87
2019-04-27T22:09:08.551Z,83.70
2019-04-27T22:11:40.892Z,83.67
2019-04-27T22:14:11.676Z,83.98
2019-04-27T22:16:42.558Z,83.60
2019-04-27T22:19:12.192Z,83.37
2019-04-27T22:21:42.063Z,83.59
2019-04-27T22:24:13.235Z,83.24
2019-04-27T22:26:42.792Z,83.16
2019-04-27T22:29:12.238Z,83.10
2019-04-27T22:31:43.358Z,83.52
2019-04-27T22:34:13.889Z,83.52
2019-04-27T22:36:43.365Z,83.18
2019-04-27T22:39:14.573Z,82.99
2019-04-27T22:41:45.712Z,83.01
2019-04-27T22:44:21.499Z,83.39
2019-04-27T22:46:52.572Z,83.80
2019-04-27T22:49:22.019Z,84.06
2019-04-27T22:51:51.501Z,83.82
2019-04-27T22:54:21.779Z,83.73
2019-04-27T22:56:55.898Z,82.71
2019-04-27T22:59:32.944Z,83.39
2019-04-27T23:02:11.314Z,83.48
2019-04-27T23:04:45.588Z,83.13
2019-04-27T23:07:15.173Z,83.35
2019-04-27T23:09:44.677Z,83.02
2019-04-27T23:12:14.174Z,83.12
2019-04-27T23:14:43.745Z,83.26
2019-04-27T23:17:31.745Z,83.33
2019-04-27T23:20:01.563Z,83.58
2019-04-27T23:22:31.706Z,83.33
2019-04-27T23:25:01.185Z,83.22
2019-04-27T23:27:31.840Z,83.46
2019-04-27T23:30:01.646Z,83.71
2019-04-27T23:32:45.199Z,84.11
2019-04-27T23:35:14.774Z,84.57
2019-04-27T23:37:44.278Z,84.45
2019-04-27T23:40:14.827Z,84.00
2019-04-27T23:42:44.397Z,83.50
2019-04-27T23:45:14.451Z,83.57
2019-04-27T23:47:43.908Z,83.42
2019-04-27T23:50:15.170Z,83.42
2019-04-27T23:52:52.604Z,83.47
2019-04-27T23:55:23.810Z,83.84
2019-04-27T23:57:54.110Z,83.71
